TimeMST,TemperatureF,Dew PointF,Humidity,Sea Level PressureIn,VisibilityMPH,Wind Direction,Wind SpeedMPH,Gust SpeedMPH,PrecipitationIn,Events,Conditions,WindDirDegrees,DateUTC
12:53 AM,9.0,3.9,80,30.40,5.0,Calm,Calm,-,N/A,,Haze,0,2013-02-14 07:53:00
1:53 AM,9.0,3.9,80,30.40,5.0,Calm,Calm,-,N/A,,Haze,0,2013-02-14 08:53:00
2:53 AM,10.9,6.1,81,30.39,6.0,WSW,3.5,-,N/A,,Haze,240,2013-02-14 09:53:00
3:53 AM,10.9,7.0,84,30.38,6.0,North,5.8,-,N/A,,Overcast,350,2013-02-14 10:53:00
4:53 AM,12.9,8.1,81,30.36,6.0,Calm,Calm,-,N/A,,Haze,0,2013-02-14 11:53:00
5:53 AM,14.0,9.0,80,30.38,7.0,Calm,Calm,-,N/A,,Overcast,0,2013-02-14 12:53:00
6:53 AM,12.0,8.1,84,30.43,6.0,Calm,Calm,-,N/A,,Overcast,0,2013-02-14 13:53:00
7:53 AM,14.0,9.0,80,30.44,7.0,West,3.5,-,N/A,,Mostly Cloudy,280,2013-02-14 14:53:00
8:53 AM,12.9,8.1,81,30.47,4.0,SSW,3.5,-,N/A,,Haze,210,2013-02-14 15:53:00
9:53 AM,12.9,6.1,74,30.50,6.0,Calm,Calm,-,N/A,,Haze,0,2013-02-14 16:53:00
10:53 AM,16.0,8.1,71,30.50,6.0,Calm,Calm,-,N/A,,Haze,0,2013-02-14 17:53:00
11:53 AM,19.9,10.0,65,30.48,8.0,Calm,Calm,-,N/A,,Clear,0,2013-02-14 18:53:00
12:53 PM,21.9,10.9,63,30.46,9.0,Calm,Calm,-,N/A,,Clear,0,2013-02-14 19:53:00
1:53 PM,25.0,12.0,58,30.43,10.0,NNE,5.8,-,N/A,,Clear,30,2013-02-14 20:53:00
2:53 PM,26.1,12.9,58,30.41,10.0,East,3.5,-,N/A,,Clear,80,2013-02-14 21:53:00
3:53 PM,28.0,12.9,53,30.40,10.0,Calm,Calm,-,N/A,,Clear,0,2013-02-14 22:53:00
4:53 PM,27.0,12.9,56,30.41,10.0,Calm,Calm,-,N/A,,Clear,0,2013-02-14 23:53:00
5:53 PM,23.0,12.9,65,30.42,10.0,Calm,Calm,-,N/A,,Clear,0,2013-02-15 00:53:00
6:53 PM,21.0,12.0,68,30.43,10.0,Calm,Calm,-,N/A,,Clear,0,2013-02-15 01:53:00
7:53 PM,14.0,9.0,80,30.46,8.0,Calm,Calm,-,N/A,,Clear,0,2013-02-15 02:53:00
8:53 PM,12.9,10.0,88,30.48,7.0,NNW,3.5,-,N/A,,Clear,340,2013-02-15 03:53:00
9:53 PM,10.0,7.0,87,30.52,7.0,NW,3.5,-,N/A,,Clear,310,2013-02-15 04:53:00
10:53 PM,10.9,7.0,84,30.51,6.0,Variable,3.5,-,N/A,,Clear,0,2013-02-15 05:53:00
11:53 PM,10.9,7.0,84,30.50,6.0,Calm,Calm,-,N/A,,Clear,0,2013-02-15 06:53:00